createdAt,value
2022-09-17T00:00:06.598Z,11.50
2022-09-17T00:03:09.776Z,11.60
2022-09-17T00:06:12.942Z,11.60
2022-09-17T00:09:15.445Z,11.50
2022-09-17T00:12:17.748Z,11.60
2022-09-17T00:15:19.488Z,11.60
2022-09-17T00:18:21.398Z,11.60
2022-09-17T00:21:23.930Z,11.50
2022-09-17T00:24:25.687Z,11.50
2022-09-17T00:27:27.605Z,11.60
2022-09-17T00:30:29.566Z,11.60
2022-09-17T00:33:32.428Z,11.60
2022-09-17T00:36:39.017Z,11.60
2022-09-17T00:39:40.855Z,11.70
2022-09-17T00:42:42.631Z,11.70
2022-09-17T00:45:45.300Z,11.60
2022-09-17T00:48:47.736Z,11.60
2022-09-17T00:52:00.809Z,11.60
2022-09-17T00:55:26.584Z,11.70
2022-09-17T00:58:29.573Z,11.70
2022-09-17T01:01:32.864Z,11.70
2022-09-17T01:04:34.661Z,11.70
2022-09-17T01:07:48.549Z,11.70
2022-09-17T01:11:12.782Z,11.70
2022-09-17T01:14:36.192Z,11.70
2022-09-17T01:17:40.974Z,11.70
2022-09-17T01:21:09.918Z,11.60
2022-09-17T01:24:39.433Z,11.60
2022-09-17T01:28:29.574Z,11.70
2022-09-17T01:31:59.396Z,11.70
2022-09-17T01:35:15.242Z,11.70
2022-09-17T01:38:28.548Z,11.60
2022-09-17T01:41:34.012Z,11.60
2022-09-17T01:44:56.360Z,11.60
2022-09-17T01:48:03.293Z,11.60
2022-09-17T01:51:11.063Z,11.60
2022-09-17T01:54:27.923Z,11.60
2022-09-17T01:57:43.782Z,11.60
2022-09-17T02:00:51.946Z,11.70
2022-09-17T02:04:02.984Z,11.60
2022-09-17T02:07:11.138Z,11.60
2022-09-17T02:10:17.423Z,11.60
2022-09-17T02:13:29.811Z,11.70
2022-09-17T02:16:35.742Z,11.60
2022-09-17T02:19:40.264Z,11.70
2022-09-17T02:22:57.005Z,11.60
2022-09-17T02:26:12.589Z,11.70
2022-09-17T02:29:36.734Z,11.70
2022-09-17T02:32:38.696Z,11.70
2022-09-17T02:35:40.674Z,11.70
2022-09-17T02:38:45.523Z,11.70
2022-09-17T02:42:15.870Z,11.60
2022-09-17T02:45:36.078Z,11.70
2022-09-17T02:49:09.045Z,11.70
2022-09-17T02:52:42.465Z,11.70
2022-09-17T02:56:00.920Z,11.70
2022-09-17T02:59:32.474Z,11.70
2022-09-17T03:02:41.174Z,11.70
2022-09-17T03:05:45.502Z,11.70
2022-09-17T03:08:47.608Z,11.70
2022-09-17T03:11:49.773Z,11.70
2022-09-17T03:14:51.419Z,11.70
2022-09-17T03:17:53.641Z,11.70
2022-09-17T03:20:55.574Z,11.70
2022-09-17T03:23:59.653Z,11.80
2022-09-17T03:27:01.323Z,11.70
2022-09-17T03:30:03.800Z,11.80
2022-09-17T03:33:05.764Z,11.80
2022-09-17T03:36:07.524Z,11.80
2022-09-17T03:39:09.266Z,11.80
2022-09-17T03:42:10.938Z,11.80
2022-09-17T03:45:13.251Z,11.80
2022-09-17T03:48:15.143Z,11.80
2022-09-17T03:51:16.860Z,11.80
2022-09-17T03:54:18.632Z,11.70
2022-09-17T03:57:20.353Z,11.80
2022-09-17T04:00:22.494Z,11.80
2022-09-17T04:03:25.709Z,11.80
2022-09-17T04:06:27.565Z,11.80
2022-09-17T04:09:30.014Z,11.80
2022-09-17T04:12:32.064Z,11.80
2022-09-17T04:15:33.754Z,11.80
2022-09-17T04:18:35.570Z,11.80
2022-09-17T04:21:37.294Z,11.70
2022-09-17T04:24:39.189Z,11.70
2022-09-17T04:27:41.040Z,11.70
2022-09-17T04:30:45.968Z,11.70
2022-09-17T04:33:47.910Z,11.70
2022-09-17T04:36:49.647Z,11.70
2022-09-17T04:39:52.182Z,11.70
2022-09-17T04:42:55.689Z,11.60
2022-09-17T04:45:57.481Z,11.60
2022-09-17T04:48:59.351Z,11.60
2022-09-17T04:52:01.294Z,11.60
2022-09-17T04:55:03.241Z,11.60
2022-09-17T04:58:05.029Z,11.60
2022-09-17T05:01:06.843Z,11.70
2022-09-17T05:04:08.708Z,11.70
2022-09-17T05:07:13.366Z,11.70
2022-09-17T05:10:17.985Z,11.70
2022-09-17T05:13:19.990Z,11.60
2022-09-17T05:16:21.869Z,11.70
2022-09-17T05:19:24.048Z,11.60
2022-09-17T05:22:25.736Z,11.60
2022-09-17T05:25:27.500Z,11.60
2022-09-17T05:28:29.779Z,11.60
2022-09-17T05:31:31.586Z,11.60
2022-09-17T05:34:34.010Z,11.60
2022-09-17T05:37:36.734Z,11.60
2022-09-17T05:40:38.638Z,11.60
2022-09-17T05:43:42.574Z,11.60
2022-09-17T05:46:45.597Z,11.60
2022-09-17T05:49:47.453Z,11.60
2022-09-17T05:52:49.872Z,11.70
2022-09-17T05:55:51.550Z,11.60
2022-09-17T05:58:57.008Z,11.60
2022-09-17T06:01:58.925Z,11.60
2022-09-17T06:05:01.853Z,11.60
2022-09-17T06:08:03.857Z,11.60
2022-09-17T06:11:07.152Z,11.60
2022-09-17T06:14:09.696Z,11.70
2022-09-17T06:17:11.618Z,11.70
2022-09-17T06:20:13.325Z,11.70
2022-09-17T06:23:16.089Z,11.70
2022-09-17T06:26:18.670Z,11.70
2022-09-17T06:29:21.045Z,11.80
2022-09-17T06:32:23.191Z,11.80
2022-09-17T06:35:24.932Z,11.70
2022-09-17T06:38:28.016Z,11.70
2022-09-17T06:41:30.220Z,11.70
2022-09-17T06:44:32.055Z,11.80
2022-09-17T06:47:34.750Z,11.80
2022-09-17T06:50:42.004Z,11.80
2022-09-17T06:53:44.393Z,11.80
2022-09-17T06:56:47.735Z,11.80
2022-09-17T06:59:50.144Z,11.80
2022-09-17T07:02:58.513Z,11.80
2022-09-17T07:06:00.572Z,11.80
2022-09-17T07:09:02.677Z,11.80
2022-09-17T07:12:08.310Z,11.80
2022-09-17T07:15:15.996Z,11.80
2022-09-17T07:18:17.775Z,11.90
2022-09-17T07:21:19.557Z,11.80
2022-09-17T07:24:21.224Z,11.90
2022-09-17T07:27:23.068Z,12.00
2022-09-17T07:30:25.057Z,12.00
2022-09-17T07:33:27.813Z,12.10
2022-09-17T07:36:29.570Z,12.20
2022-09-17T07:39:31.278Z,12.20
2022-09-17T07:42:34.032Z,12.30
2022-09-17T07:45:35.755Z,12.20
2022-09-17T07:48:37.442Z,12.30
2022-09-17T07:51:40.743Z,12.30
2022-09-17T07:54:42.722Z,12.40
2022-09-17T07:57:50.368Z,12.50
2022-09-17T08:00:52.311Z,12.50
2022-09-17T08:03:54.826Z,12.60
2022-09-17T08:06:56.495Z,12.70
2022-09-17T08:09:58.414Z,12.80
2022-09-17T08:13:00.740Z,12.90
2022-09-17T08:16:09.057Z,13.00
2022-09-17T08:19:10.942Z,13.10
2022-09-17T08:22:12.965Z,13.10
2022-09-17T08:25:14.786Z,13.20
2022-09-17T08:28:16.463Z,13.20
2022-09-17T08:31:19.551Z,13.10
2022-09-17T08:34:21.415Z,13.10
2022-09-17T08:37:23.787Z,13.10
2022-09-17T08:40:27.842Z,13.10
2022-09-17T08:43:31.870Z,13.10
2022-09-17T08:47:06.229Z,13.00
2022-09-17T08:50:15.754Z,13.10
2022-09-17T08:53:52.551Z,13.00
2022-09-17T08:57:14.748Z,13.00
2022-09-17T09:00:21.781Z,13.00
2022-09-17T09:03:42.742Z,13.00
2022-09-17T09:06:54.943Z,13.20
2022-09-17T09:10:11.665Z,13.20
2022-09-17T09:13:17.603Z,13.30
2022-09-17T09:16:23.628Z,13.40
2022-09-17T09:19:29.191Z,13.50
2022-09-17T09:22:50.504Z,13.60
2022-09-17T09:26:03.312Z,13.70
2022-09-17T09:29:08.332Z,14.00
2022-09-17T09:32:49.089Z,14.20
2022-09-17T09:35:50.877Z,14.20
2022-09-17T09:39:01.775Z,14.20
2022-09-17T09:42:29.141Z,14.20
2022-09-17T09:45:48.109Z,14.10
2022-09-17T09:49:16.118Z,14.10
2022-09-17T09:52:28.932Z,14.10
2022-09-17T09:56:02.338Z,14.10
2022-09-17T09:59:07.746Z,14.00
2022-09-17T10:02:09.913Z,13.90
2022-09-17T10:05:12.427Z,13.90
2022-09-17T10:08:16.010Z,13.90
2022-09-17T10:11:17.608Z,13.90
2022-09-17T10:14:25.677Z,13.90
2022-09-17T10:17:28.967Z,13.90
2022-09-17T10:20:30.843Z,13.90
2022-09-17T10:23:37.113Z,14.00
2022-09-17T10:26:39.040Z,14.20
2022-09-17T10:29:47.383Z,14.20
2022-09-17T10:33:14.033Z,14.20
2022-09-17T10:36:15.764Z,14.20
2022-09-17T10:39:38.505Z,14.30
2022-09-17T10:42:40.389Z,14.40
2022-09-17T10:45:45.444Z,14.60
2022-09-17T10:48:59.964Z,14.70
2022-09-17T10:52:20.088Z,14.70
2022-09-17T10:55:41.425Z,14.60
2022-09-17T10:58:48.901Z,14.60
2022-09-17T11:01:59.658Z,14.40
2022-09-17T11:05:20.378Z,14.20
2022-09-17T11:08:56.188Z,14.00
2022-09-17T11:12:00.675Z,13.90
2022-09-17T11:15:02.632Z,13.80
2022-09-17T11:18:38.362Z,13.80
2022-09-17T11:21:56.476Z,13.80
2022-09-17T11:25:16.836Z,13.80
2022-09-17T11:28:39.460Z,13.90
2022-09-17T11:32:04.871Z,13.90
2022-09-17T11:35:17.587Z,13.90
2022-09-17T11:38:38.272Z,14.10
2022-09-17T11:41:45.543Z,14.10
2022-09-17T11:45:02.510Z,14.20
2022-09-17T11:48:17.083Z,14.20
2022-09-17T11:51:28.344Z,14.30
2022-09-17T11:54:55.649Z,14.40
2022-09-17T11:58:07.961Z,14.60
2022-09-17T12:01:13.890Z,14.70
2022-09-17T12:04:36.663Z,14.90
2022-09-17T12:08:03.808Z,14.90
2022-09-17T12:11:31.133Z,14.90
2022-09-17T12:14:51.044Z,14.90
2022-09-17T12:18:27.709Z,14.90
2022-09-17T12:21:36.907Z,14.80
2022-09-17T12:24:40.349Z,14.80
2022-09-17T12:27:48.173Z,14.80
2022-09-17T12:31:03.118Z,14.90
2022-09-17T12:34:25.276Z,14.90
2022-09-17T12:37:48.972Z,14.90
2022-09-17T12:41:24.640Z,14.90
2022-09-17T12:44:29.646Z,14.90
2022-09-17T12:48:07.171Z,14.80
2022-09-17T12:51:31.878Z,14.80
2022-09-17T12:54:48.723Z,14.80
2022-09-17T12:57:59.533Z,14.80
2022-09-17T13:01:14.250Z,14.90
2022-09-17T13:05:00.880Z,14.80
2022-09-17T13:08:09.122Z,14.80
2022-09-17T13:11:22.970Z,14.70
2022-09-17T13:14:36.796Z,14.70
2022-09-17T13:18:23.819Z,14.80
2022-09-17T13:21:40.233Z,14.80
2022-09-17T13:24:47.096Z,14.90
2022-09-17T13:27:50.587Z,15.00
2022-09-17T13:30:58.031Z,15.00
2022-09-17T13:34:04.174Z,15.00
2022-09-17T13:37:19.396Z,15.00
2022-09-17T13:40:28.052Z,15.10
2022-09-17T13:43:30.217Z,15.10
2022-09-17T13:46:36.366Z,15.20
2022-09-17T13:49:49.816Z,15.20
2022-09-17T13:52:53.914Z,15.20
2022-09-17T13:56:05.013Z,15.10
2022-09-17T13:59:09.895Z,15.00
2022-09-17T14:02:14.767Z,15.00
2022-09-17T14:05:35.711Z,15.00
2022-09-17T14:08:52.052Z,15.00
2022-09-17T14:11:53.985Z,15.00
2022-09-17T14:14:55.962Z,14.90
2022-09-17T14:17:58.801Z,14.80
2022-09-17T14:21:09.706Z,14.80
2022-09-17T14:24:22.974Z,14.70
2022-09-17T14:27:51.008Z,14.60
2022-09-17T14:30:55.128Z,14.50
2022-09-17T14:33:57.323Z,14.30
2022-09-17T14:36:59.661Z,14.30
2022-09-17T14:40:08.676Z,14.30
2022-09-17T14:43:30.918Z,14.30
2022-09-17T14:46:37.802Z,14.30
2022-09-17T14:49:40.976Z,14.30
2022-09-17T14:52:49.955Z,14.30
2022-09-17T14:55:52.103Z,14.30
2022-09-17T14:58:55.545Z,14.30
2022-09-17T15:01:57.415Z,14.30
2022-09-17T15:05:00.216Z,14.30
2022-09-17T15:08:14.819Z,14.40
2022-09-17T15:11:17.504Z,14.40
2022-09-17T15:14:25.997Z,14.50
2022-09-17T15:17:31.112Z,14.60
2022-09-17T15:20:36.063Z,14.60
2022-09-17T15:23:38.080Z,14.60
2022-09-17T15:26:43.163Z,14.70
2022-09-17T15:33:04.181Z,14.80
2022-09-17T15:36:14.869Z,14.80
2022-09-17T15:39:46.921Z,14.80
2022-09-17T15:42:52.948Z,14.80
2022-09-17T15:45:55.827Z,14.70
2022-09-17T15:49:26.578Z,14.70
2022-09-17T15:52:35.754Z,14.70
2022-09-17T15:55:37.535Z,14.70
2022-09-17T15:58:42.006Z,14.70
2022-09-17T16:01:43.730Z,14.70
2022-09-17T16:04:45.539Z,14.70
2022-09-17T16:07:47.599Z,14.70
2022-09-17T16:10:49.563Z,14.60
2022-09-17T16:13:53.526Z,14.60
2022-09-17T16:16:56.315Z,14.60
2022-09-17T16:20:05.840Z,14.50
2022-09-17T16:23:08.435Z,14.50
2022-09-17T16:26:21.592Z,14.50
2022-09-17T16:29:23.593Z,14.50
2022-09-17T16:32:25.311Z,14.40
2022-09-17T16:35:27.209Z,14.40
2022-09-17T16:38:29.451Z,14.30
2022-09-17T16:41:31.110Z,14.30
2022-09-17T16:44:33.147Z,14.40
2022-09-17T16:47:37.182Z,14.40
2022-09-17T16:50:41.250Z,14.40
2022-09-17T16:53:42.939Z,14.40
2022-09-17T16:56:44.627Z,14.30
2022-09-17T16:59:46.358Z,14.30
2022-09-17T17:02:56.971Z,14.30
2022-09-17T17:05:58.819Z,14.30
2022-09-17T17:09:01.955Z,14.30
2022-09-17T17:12:03.961Z,14.20
2022-09-17T17:15:06.719Z,14.30
2022-09-17T17:18:08.643Z,14.30
2022-09-17T17:21:12.719Z,14.20
2022-09-17T17:24:14.487Z,14.10
2022-09-17T17:27:18.344Z,14.20
2022-09-17T17:30:20.238Z,14.10
2022-09-17T17:33:21.934Z,14.10
2022-09-17T17:36:23.758Z,14.00
2022-09-17T17:39:25.734Z,14.00
2022-09-17T17:42:27.494Z,14.00
2022-09-17T17:45:29.232Z,14.00
2022-09-17T17:48:30.955Z,13.90
2022-09-17T17:51:33.399Z,13.90
2022-09-17T17:54:35.262Z,13.90
2022-09-17T17:57:36.927Z,13.80
2022-09-17T18:00:38.783Z,13.80
2022-09-17T18:03:40.990Z,13.80
2022-09-17T18:06:42.827Z,13.80
2022-09-17T18:09:44.628Z,13.80
2022-09-17T18:12:50.587Z,13.60
2022-09-17T18:15:58.727Z,13.70
2022-09-17T18:19:01.900Z,13.60
2022-09-17T18:22:04.442Z,13.60
2022-09-17T18:25:07.147Z,13.50
2022-09-17T18:28:08.840Z,13.50
2022-09-17T18:31:28.510Z,13.50
2022-09-17T18:34:30.541Z,13.50
2022-09-17T18:37:32.255Z,13.40
2022-09-17T18:40:34.234Z,13.40
2022-09-17T18:43:36.686Z,13.40
2022-09-17T18:46:38.607Z,13.40
2022-09-17T18:49:40.463Z,13.40
2022-09-17T18:52:42.245Z,13.40
2022-09-17T18:55:46.909Z,13.40
2022-09-17T18:58:50.603Z,13.30
2022-09-17T19:01:52.830Z,13.20
2022-09-17T19:04:54.765Z,13.30
2022-09-17T19:07:56.818Z,13.30
2022-09-17T19:10:58.907Z,13.20
2022-09-17T19:14:01.481Z,13.10
2022-09-17T19:17:03.277Z,13.10
2022-09-17T19:20:05.866Z,13.20
2022-09-17T19:23:08.328Z,13.20
2022-09-17T19:26:19.564Z,13.10
2022-09-17T19:29:21.419Z,13.00
2022-09-17T19:32:23.514Z,13.00
2022-09-17T19:35:25.424Z,12.90
2022-09-17T19:38:27.405Z,13.00
2022-09-17T19:41:31.929Z,13.00
2022-09-17T19:44:33.897Z,13.00
2022-09-17T19:47:35.719Z,12.90
2022-09-17T19:50:37.403Z,12.90
2022-09-17T19:53:39.201Z,12.90
2022-09-17T19:56:41.164Z,12.90
2022-09-17T19:59:42.952Z,12.90
2022-09-17T20:02:44.761Z,12.90
2022-09-17T20:06:00.368Z,12.90
2022-09-17T20:09:02.663Z,12.90
2022-09-17T20:12:04.551Z,12.90
2022-09-17T20:15:07.139Z,12.90
2022-09-17T20:18:18.621Z,12.90
2022-09-17T20:21:29.536Z,12.90
2022-09-17T20:24:55.988Z,12.80
2022-09-17T20:28:17.315Z,12.80
2022-09-17T20:31:21.686Z,12.80
2022-09-17T20:48:53.985Z,12.80
2022-09-17T20:51:56.185Z,12.70
2022-09-17T20:54:57.851Z,12.70
2022-09-17T20:57:59.554Z,12.80
2022-09-17T21:01:06.355Z,12.80
2022-09-17T21:04:08.875Z,12.80
2022-09-17T21:07:10.621Z,12.80
2022-09-17T21:10:13.518Z,12.80
2022-09-17T21:13:15.290Z,12.80
2022-09-17T21:16:20.995Z,12.80
2022-09-17T21:19:24.943Z,12.80
2022-09-17T21:22:26.629Z,12.80
2022-09-17T21:25:28.773Z,12.70
2022-09-17T21:28:41.676Z,12.70
2022-09-17T21:31:44.662Z,12.80
2022-09-17T21:34:46.582Z,12.70
2022-09-17T21:37:48.252Z,12.70
2022-09-17T21:41:02.200Z,12.70
2022-09-17T21:44:05.124Z,12.70
2022-09-17T21:47:10.387Z,12.60
2022-09-17T21:50:14.135Z,12.60
2022-09-17T21:53:16.230Z,12.60
2022-09-17T21:56:18.880Z,12.60
2022-09-17T21:59:20.824Z,12.50
2022-09-17T22:02:22.559Z,12.50
2022-09-17T22:05:24.435Z,12.50
2022-09-17T22:08:26.369Z,12.50
2022-09-17T22:11:33.857Z,12.50
2022-09-17T22:14:35.706Z,12.60
2022-09-17T22:17:37.658Z,12.60
2022-09-17T22:20:39.408Z,12.60
2022-09-17T22:23:41.334Z,12.60
2022-09-17T22:26:45.910Z,12.50
2022-09-17T22:29:48.089Z,12.50
2022-09-17T22:32:49.828Z,12.60
2022-09-17T22:35:51.514Z,12.50
2022-09-17T22:38:58.160Z,12.60
2022-09-17T22:42:01.824Z,12.60
2022-09-17T22:45:07.317Z,12.50
2022-09-17T22:48:09.341Z,12.50
2022-09-17T22:51:11.739Z,12.50
2022-09-17T22:54:16.092Z,12.50
2022-09-17T22:57:18.018Z,12.50
2022-09-17T23:00:20.147Z,12.50
2022-09-17T23:03:25.750Z,12.60
2022-09-17T23:06:33.600Z,12.60
2022-09-17T23:09:35.373Z,12.50
2022-09-17T23:12:37.416Z,12.50
2022-09-17T23:15:39.180Z,12.50
2022-09-17T23:18:41.508Z,12.50
2022-09-17T23:21:43.738Z,12.50
2022-09-17T23:24:54.366Z,12.50
2022-09-17T23:27:56.977Z,12.50
2022-09-17T23:30:58.888Z,12.50
2022-09-17T23:34:00.683Z,12.50
2022-09-17T23:37:02.561Z,12.50
2022-09-17T23:40:05.816Z,12.50
2022-09-17T23:43:07.649Z,12.50
2022-09-17T23:46:11.265Z,12.50
2022-09-17T23:49:14.305Z,12.50
2022-09-17T23:52:16.207Z,12.50
2022-09-17T23:55:18.049Z,12.50
2022-09-17T23:58:19.793Z,12.50
